Time;durP1;ratioP1;P1;durP2;ratioP2;P2;SDS_P1;SDS_P2;PMS_P1;PMS_P2;Temp;Humidity;BMP_temperature;BMP_pressure;BME280_temperature;BME280_humidity;BME280_pressure;Samples;Min_cycle;Max_cycle;Signal;HPM_P1;HPM_P2
2021/05/12 00:00:23;;;;;;;5.35;2.53;;;11.70;87.40;;;;;;5055189;28;20267;-78
2021/05/12 00:02:49;;;;;;;5.22;2.97;;;11.90;87.90;;;;;;5055807;28;20172;-78
2021/05/12 00:05:16;;;;;;;7.45;3.08;;;12.10;72.00;;;;;;5054993;28;20183;-79
2021/05/12 00:07:42;;;;;;;4.18;2.75;;;;;;;;;;5055518;28;20183;-78
2021/05/12 00:10:10;;;;;;;6.50;2.92;;;12.10;72.90;;;;;;5054092;28;20289;-79
2021/05/12 00:12:37;;;;;;;4.70;2.35;;;12.40;88.50;;;;;;5055620;28;20180;-78
2021/05/12 00:15:05;;;;;;;6.80;2.75;;;11.90;87.90;;;;;;5055664;28;20179;-79
2021/05/12 00:17:31;;;;;;;14.00;2.85;;;;;;;;;;5055562;28;20334;-78
2021/05/12 00:20:00;;;;;;;4.97;2.83;;;;;;;;;;5054642;28;20190;-79
2021/05/12 00:25:01;;;;;;;5.00;2.50;;;12.30;89.40;;;;;;5055882;28;20171;-78
2021/05/12 00:27:27;;;;;;;8.18;3.10;;;11.70;88.80;;;;;;5055603;28;20180;-78
2021/05/12 00:29:53;;;;;;;6.95;3.08;;;;;;;;;;5055123;28;20183;-78
2021/05/12 00:32:19;;;;;;;4.60;2.65;;;11.90;88.90;;;;;;5055481;28;20228;-78
2021/05/12 00:34:45;;;;;;;7.63;3.33;;;;;;;;;;5054293;28;20628;-78
2021/05/12 00:37:10;;;;;;;6.95;2.60;;;11.60;89.10;;;;;;5055764;28;20219;-79
2021/05/12 00:39:36;;;;;;;4.43;2.47;;;;;;;;;;5055453;28;20632;-78
2021/05/12 00:42:02;;;;;;;7.00;3.00;;;;;;;;;;5055492;28;20501;-79
2021/05/12 00:44:28;;;;;;;5.43;2.53;;;11.60;90.20;;;;;;5055197;28;20215;-78
2021/05/12 00:46:54;;;;;;;9.35;3.42;;;;;;;;;;5055209;28;20726;-79
2021/05/12 00:49:22;;;;;;;5.13;2.50;;;11.60;90.00;;;;;;5055321;28;20172;-78
2021/05/12 00:51:48;;;;;;;6.93;2.28;;;12.00;90.20;;;;;;5053456;28;20199;-79
2021/05/12 00:54:14;;;;;;;8.25;2.97;;;11.70;90.10;;;;;;5054140;28;20176;-79
2021/05/12 00:56:42;;;;;;;11.90;2.70;;;11.70;89.90;;;;;;5054924;28;20179;-79
2021/05/12 00:59:08;;;;;;;5.57;2.35;;;12.10;90.10;;;;;;5055221;28;20180;-78
2021/05/12 01:01:35;;;;;;;4.93;2.88;;;11.50;89.90;;;;;;5055228;28;20219;-78
2021/05/12 01:04:01;;;;;;;5.22;2.70;;;11.50;90.00;;;;;;5054667;28;20176;-78
2021/05/12 01:06:30;;;;;;;4.95;2.50;;;11.60;90.10;;;;;;5053906;28;20187;-78
2021/05/12 01:08:56;;;;;;;4.03;2.42;;;;;;;;;;5054464;28;20346;-79
2021/05/12 01:11:23;;;;;;;5.33;2.80;;;11.90;90.50;;;;;;5055937;28;20255;-78
2021/05/12 01:13:50;;;;;;;9.02;2.40;;;11.10;89.50;;;;;;5054736;28;20179;-78
2021/05/12 01:16:17;;;;;;;4.85;2.75;;;11.70;74.30;;;;;;5055264;28;20254;-77
2021/05/12 01:18:43;;;;;;;5.80;2.83;;;11.70;90.40;;;;;;5054475;28;20219;-78
2021/05/12 01:21:10;;;;;;;3.80;2.83;;;11.60;75.50;;;;;;5054208;28;20520;-77
2021/05/12 01:23:44;;;;;;;7.28;2.28;;;11.40;90.50;;;;;;5053299;28;20184;-78
2021/05/12 01:26:16;;;;;;;8.38;2.92;;;11.60;90.90;;;;;;5054172;28;20171;-78
2021/05/12 01:28:49;;;;;;;9.82;2.70;;;11.40;91.60;;;;;;5054224;28;20258;-78
2021/05/12 01:31:17;;;;;;;4.20;2.70;;;10.90;91.90;;;;;;5054459;28;20283;-79
2021/05/12 01:33:44;;;;;;;8.47;2.77;;;11.30;92.50;;;;;;5053500;28;20645;-80
2021/05/12 01:36:12;;;;;;;4.03;2.42;;;11.30;80.70;;;;;;5036528;28;20541;-79
2021/05/12 01:38:40;;;;;;;3.22;2.80;;;10.60;92.90;;;;;;5086372;28;20240;-79
2021/05/12 01:41:06;;;;;;;5.57;2.42;;;11.10;93.10;;;;;;5053685;28;20641;-79
2021/05/12 01:43:33;;;;;;;3.73;2.73;;;11.40;94.20;;;;;;5052834;28;20622;-79
2021/05/12 01:46:00;;;;;;;3.63;2.70;;;;;;;;;;5053873;28;20204;-79
2021/05/12 01:48:26;;;;;;;4.03;2.70;;;11.40;92.90;;;;;;5054201;28;20183;-79
2021/05/12 01:50:52;;;;;;;6.15;2.92;;;10.80;94.50;;;;;;5086157;28;20172;-79
2021/05/12 01:53:18;;;;;;;4.57;2.30;;;11.00;94.50;;;;;;5054317;28;20182;-79
2021/05/12 01:55:46;;;;;;;6.10;2.70;;;10.90;90.80;;;;;;5053755;28;20182;-80
2021/05/12 01:58:13;;;;;;;8.45;2.50;;;10.70;95.00;;;;;;5053823;28;20213;-79
2021/05/12 02:00:41;;;;;;;3.77;2.23;;;10.70;95.40;;;;;;5053365;28;20527;-79
2021/05/12 02:03:10;;;;;;;4.82;2.50;;;11.30;86.60;;;;;;5053311;28;20172;-79
2021/05/12 02:05:37;;;;;;;6.95;2.22;;;10.70;95.60;;;;;;5053937;28;20180;-79
2021/05/12 02:08:06;;;;;;;5.13;2.80;;;10.90;95.80;;;;;;5086088;28;20305;-79
2021/05/12 02:10:32;;;;;;;5.67;3.20;;;10.80;95.70;;;;;;5054339;28;20230;-79
2021/05/12 02:12:58;;;;;;;4.73;2.73;;;;;;;;;;5053852;28;20666;-78
2021/05/12 02:15:24;;;;;;;5.38;2.92;;;11.10;96.20;;;;;;5054026;28;20186;-79
2021/05/12 02:17:51;;;;;;;3.83;2.37;;;10.90;86.50;;;;;;5053555;28;20211;-79
2021/05/12 02:20:31;;;;;;;5.43;2.80;;;10.90;96.00;;;;;;5053294;28;20991;-79
2021/05/12 02:23:02;;;;;;;6.13;2.90;;;10.70;92.70;;;;;;5053205;28;20163;-79
2021/05/12 02:25:29;;;;;;;7.57;2.58;;;;;;;;;;5053404;28;20172;-78
2021/05/12 02:27:55;;;;;;;4.17;2.70;;;10.90;96.20;;;;;;5053201;28;20255;-78
2021/05/12 02:30:22;;;;;;;8.30;2.57;;;11.20;97.50;;;;;;5053534;28;20250;-79
2021/05/12 02:32:48;;;;;;;5.95;2.72;;;10.90;97.40;;;;;;5053641;28;20195;-78
2021/05/12 02:35:15;;;;;;;4.23;2.40;;;10.90;97.70;;;;;;5085640;28;20180;-78
2021/05/12 02:37:41;;;;;;;6.17;3.00;;;10.70;98.00;;;;;;5052558;28;20211;-78
2021/05/12 02:40:09;;;;;;;5.57;3.20;;;10.80;95.20;;;;;;5053594;28;20305;-79
2021/05/12 02:42:36;;;;;;;8.40;3.40;;;;;;;;;;5053134;28;20172;-78
2021/05/12 02:45:03;;;;;;;6.27;3.20;;;10.50;98.70;;;;;;5051219;28;20278;-79
2021/05/12 02:47:28;;;;;;;6.80;2.83;;;10.70;99.40;;;;;;5052062;28;20238;-78
2021/05/12 02:49:54;;;;;;;4.73;2.60;;;;;;;;;;5053066;28;20555;-78
2021/05/12 02:52:20;;;;;;;6.37;3.07;;;10.40;99.90;;;;;;5053166;28;20262;-79
2021/05/12 02:54:47;;;;;;;10.77;3.30;;;;;;;;;;5052853;28;20310;-78
2021/05/12 02:57:12;;;;;;;6.40;2.90;;;10.50;99.90;;;;;;5052627;28;20696;-78
2021/05/12 02:59:38;;;;;;;6.83;2.93;;;;;;;;;;5053153;28;20175;-78
2021/05/12 03:02:04;;;;;;;4.67;2.80;;;;;;;;;;5052688;28;20220;-78
2021/05/12 03:04:30;;;;;;;9.60;3.00;;;10.30;99.90;;;;;;5052832;28;20181;-78
2021/05/12 03:06:56;;;;;;;6.07;3.10;;;10.20;99.90;;;;;;5052654;28;20636;-79
2021/05/12 03:09:23;;;;;;;4.27;2.70;;;10.70;99.90;;;;;;5051746;28;20238;-78
2021/05/12 03:11:48;;;;;;;7.27;3.03;;;10.40;99.90;;;;;;5053328;28;20195;-78
2021/05/12 03:14:14;;;;;;;7.43;2.60;;;10.30;99.90;;;;;;5052613;28;20175;-79
2021/05/12 03:16:41;;;;;;;6.97;2.83;;;;;;;;;;5053328;28;20184;-79
2021/05/12 03:19:06;;;;;;;7.50;3.20;;;10.40;99.90;;;;;;5051330;28;20187;-78
2021/05/12 03:21:33;;;;;;;4.67;2.90;;;;;;;;;;5051611;28;20187;-79
2021/05/12 03:24:01;;;;;;;9.53;3.00;;;10.40;97.70;;;;;;5052619;28;20180;-80
2021/05/12 03:26:27;;;;;;;12.63;2.93;;;;;;;;;;5052646;28;20644;-78
2021/05/12 03:28:53;;;;;;;7.30;2.83;;;10.80;99.90;;;;;;5052409;28;20588;-78
2021/05/12 03:31:19;;;;;;;6.73;3.27;;;;;;;;;;5052473;28;20191;-79
2021/05/12 03:33:45;;;;;;;8.37;3.00;;;10.50;99.90;;;;;;5052994;28;20229;-79
2021/05/12 03:36:11;;;;;;;5.13;2.70;;;;;;;;;;5052159;28;20263;-79
2021/05/12 03:38:37;;;;;;;6.03;2.43;;;11.20;99.90;;;;;;5052544;28;20290;-79
2021/05/12 03:41:04;;;;;;;8.10;3.00;;;10.90;99.90;;;;;;5085055;28;20187;-79
2021/05/12 03:43:29;;;;;;;6.93;2.88;;;10.90;99.90;;;;;;5051429;28;20180;-79
2021/05/12 03:45:55;;;;;;;4.00;2.60;;;10.80;99.90;;;;;;5052474;28;20602;-79
2021/05/12 03:48:21;;;;;;;6.37;3.30;;;;;;;;;;5052332;28;20186;-78
2021/05/12 03:50:47;;;;;;;7.50;2.97;;;11.40;99.90;;;;;;5056420;28;20186;-78
2021/05/12 03:53:13;;;;;;;5.47;3.17;;;;;;;;;;5055833;28;20262;-79
2021/05/12 03:55:40;;;;;;;3.87;2.70;;;11.40;99.90;;;;;;5049637;28;20231;-79
2021/05/12 03:58:06;;;;;;;3.63;2.70;;;11.40;95.80;;;;;;5055409;28;20207;-79
2021/05/12 04:00:32;;;;;;;6.60;3.10;;;11.30;96.20;;;;;;5072421;28;20195;-79
2021/05/12 04:02:58;;;;;;;5.03;3.00;;;11.50;95.70;;;;;;5069829;28;20189;-80
2021/05/12 04:05:24;;;;;;;5.25;3.33;;;11.60;99.90;;;;;;5056107;28;20172;-79
2021/05/12 04:07:50;;;;;;;4.00;3.00;;;12.10;99.90;;;;;;5065824;28;20188;-79
2021/05/12 04:10:16;;;;;;;5.53;2.78;;;;;;;;;;5071369;28;20722;-79
2021/05/12 04:12:43;;;;;;;3.95;2.83;;;;;;;;;;5067216;28;20191;-80
2021/05/12 04:15:09;;;;;;;6.40;2.53;;;12.20;94.20;;;;;;5069684;28;20277;-79
2021/05/12 04:17:35;;;;;;;3.90;2.70;;;12.30;99.90;;;;;;5053877;28;20260;-79
2021/05/12 04:20:03;;;;;;;6.78;2.70;;;12.40;93.90;;;;;;5054507;28;20200;-81
2021/05/12 04:22:29;;;;;;;4.88;2.65;;;12.60;94.70;;;;;;5061901;28;20187;-79
2021/05/12 04:24:55;;;;;;;3.70;2.40;;;;;;;;;;5058698;28;20676;-80
2021/05/12 04:27:21;;;;;;;5.00;2.90;;;12.50;99.90;;;;;;5068316;28;20195;-81
2021/05/12 04:29:47;;;;;;;4.60;2.60;;;;;;;;;;5070285;28;20194;-80
2021/05/12 04:32:13;;;;;;;7.95;3.40;;;;;;;;;;5073778;28;20183;-80
2021/05/12 04:34:39;;;;;;;8.38;3.00;;;;;;;;;;5055622;28;20183;-79
2021/05/12 04:37:05;;;;;;;5.47;3.28;;;;;;;;;;5059452;28;20215;-81
2021/05/12 04:39:31;;;;;;;5.03;3.13;;;12.90;93.80;;;;;;5053171;28;20540;-80
2021/05/12 04:41:57;;;;;;;5.03;3.00;;;;;;;;;;5052935;28;20192;-81
2021/05/12 04:44:23;;;;;;;7.88;4.05;;;;;;;;;;5053537;28;20194;-81
2021/05/12 04:46:50;;;;;;;3.55;2.72;;;;;;;;;;5052757;28;20558;-80
2021/05/12 04:49:17;;;;;;;6.78;3.17;;;13.30;98.40;;;;;;5052824;28;20183;-81
2021/05/12 04:51:43;;;;;;;7.43;3.50;;;13.50;98.20;;;;;;5052086;28;20543;-79
2021/05/12 04:54:09;;;;;;;4.07;2.95;;;13.60;98.30;;;;;;5066542;28;20592;-79
2021/05/12 04:56:35;;;;;;;4.82;2.38;;;14.00;91.20;;;;;;5071898;28;20183;-79
2021/05/12 04:59:02;;;;;;;11.80;2.67;;;13.90;92.20;;;;;;5069858;28;20187;-80
2021/05/12 05:01:28;;;;;;;8.73;2.70;;;14.60;96.60;;;;;;5068915;28;20183;-80
2021/05/12 05:03:54;;;;;;;4.15;2.78;;;14.30;97.60;;;;;;5070566;28;20183;-80
2021/05/12 05:06:20;;;;;;;7.68;3.10;;;;;;;;;;5071151;28;20182;-80
2021/05/12 05:08:46;;;;;;;6.05;2.70;;;14.50;93.20;;;;;;5061390;28;21040;-80
2021/05/12 05:11:12;;;;;;;5.68;2.78;;;;;;;;;;5063599;28;20191;-83
2021/05/12 05:13:38;;;;;;;6.07;2.55;;;14.80;96.80;;;;;;5064191;28;20188;-80
2021/05/12 05:16:04;;;;;;;3.65;2.60;;;14.80;94.00;;;;;;5095130;28;20196;-82
2021/05/12 05:18:31;;;;;;;6.18;2.72;;;15.10;89.00;;;;;;5064421;28;20199;-81
2021/05/12 05:20:58;;;;;;;5.68;3.15;;;15.00;95.80;;;;;;5060922;28;20188;-82
2021/05/12 05:23:24;;;;;;;6.57;2.60;;;15.00;95.30;;;;;;5065989;28;20587;-82
2021/05/12 05:25:50;;;;;;;6.60;2.33;;;;;;;;;;5060000;28;20263;-81
2021/05/12 05:28:16;;;;;;;4.85;2.72;;;;;;;;;;5052758;28;20172;-81
2021/05/12 05:30:42;;;;;;;4.22;2.55;;;15.80;95.90;;;;;;5052555;28;20176;-80
2021/05/12 05:33:08;;;;;;;10.27;2.55;;;;;;;;;;5053450;28;20172;-80
2021/05/12 05:35:34;;;;;;;9.25;2.80;;;;;;;;;;5053018;28;20678;-80
2021/05/12 05:38:00;;;;;;;4.47;2.63;;;;;;;;;;5053578;28;20235;-80
2021/05/12 05:40:26;;;;;;;7.57;2.42;;;16.00;90.90;;;;;;5053285;28;20188;-80
2021/05/12 05:43:02;;;;;;;9.63;3.17;;;16.50;95.70;;;;;;5053578;28;20198;-80
2021/05/12 05:45:28;;;;;;;5.38;2.47;;;16.20;90.50;;;;;;5053303;28;20488;-80
2021/05/12 05:47:55;;;;;;;10.23;2.47;;;;;;;;;;5053610;28;20186;-80
2021/05/12 05:50:21;;;;;;;3.95;2.72;;;16.60;86.10;;;;;;5053264;28;20176;-81
2021/05/12 05:52:48;;;;;;;9.05;2.72;;;16.90;94.20;;;;;;5053510;28;20172;-80
2021/05/12 05:55:13;;;;;;;4.72;2.17;;;16.80;93.90;;;;;;5051756;28;20184;-80
2021/05/12 05:57:39;;;;;;;12.73;2.90;;;17.20;91.20;;;;;;5053056;28;20291;-80
2021/05/12 06:00:06;;;;;;;6.80;2.40;;;17.20;84.10;;;;;;5053234;28;20221;-80
2021/05/12 06:02:32;;;;;;;5.40;2.10;;;17.10;93.40;;;;;;5053901;28;20199;-80
2021/05/12 06:04:57;;;;;;;3.63;2.20;;;17.70;93.00;;;;;;5055598;28;20187;-82
2021/05/12 06:07:23;;;;;;;3.13;2.08;;;;;;;;;;5061917;28;20531;-81
2021/05/12 06:16:38;;;;;;;6.00;3.05;;;;;;;;;;5416204;24;20241;-80
2021/05/12 06:19:04;;;;;;;9.88;2.42;;;18.60;91.70;;;;;;4769460;30;20201;-80
2021/05/12 06:21:30;;;;;;;7.95;1.98;;;;;;;;;;4769977;30;20243;-80
2021/05/12 06:23:55;;;;;;;5.05;2.00;;;18.30;90.90;;;;;;4739754;30;20208;-80
2021/05/12 06:26:22;;;;;;;4.13;1.90;;;18.50;91.20;;;;;;4770525;30;20194;-80
2021/05/12 06:28:48;;;;;;;5.50;1.67;;;18.60;91.00;;;;;;4754908;30;20186;-80
2021/05/12 06:31:14;;;;;;;2.75;1.83;;;;;;;;;;4754433;30;20198;-80
2021/05/12 06:33:43;;;;;;;8.73;2.10;;;19.20;82.80;;;;;;4770860;30;20208;-80
2021/05/12 06:36:09;;;;;;;5.38;1.98;;;18.90;90.00;;;;;;4770186;30;20311;-80
2021/05/12 06:38:35;;;;;;;7.88;2.10;;;19.70;90.90;;;;;;4770181;30;20288;-80
2021/05/12 06:41:01;;;;;;;6.65;2.00;;;;;;;;;;4770455;30;20190;-80
2021/05/12 06:43:27;;;;;;;3.40;1.90;;;20.10;90.60;;;;;;4770578;30;20181;-80
2021/05/12 06:45:54;;;;;;;5.25;1.85;;;20.30;90.10;;;;;;4770324;30;20267;-80
2021/05/12 06:48:20;;;;;;;9.10;2.53;;;19.50;77.50;;;;;;4770290;30;20182;-82
2021/05/12 06:50:46;;;;;;;2.28;1.65;;;19.80;87.60;;;;;;4753929;30;20190;-81
2021/05/12 06:53:12;;;;;;;5.70;1.92;;;20.00;88.70;;;;;;4770059;30;20221;-80
2021/05/12 06:55:38;;;;;;;5.88;2.10;;;;;;;;;;4769880;30;20210;-81
2021/05/12 06:58:06;;;;;;;6.65;1.83;;;20.20;87.70;;;;;;4770060;30;20296;-80
2021/05/12 07:00:32;;;;;;;5.80;2.08;;;20.00;87.10;;;;;;4769899;30;20198;-80
2021/05/12 07:02:58;;;;;;;4.80;1.90;;;;;;;;;;4770181;30;20190;-80
2021/05/12 07:05:24;;;;;;;3.13;1.63;;;19.90;85.80;;;;;;4769769;30;20182;-80
2021/05/12 07:07:50;;;;;;;7.05;1.70;;;;;;;;;;4753897;30;20193;-81
2021/05/12 07:10:16;;;;;;;7.03;2.03;;;20.50;78.90;;;;;;4769521;30;20209;-80
2021/05/12 07:12:42;;;;;;;3.53;1.85;;;20.80;85.20;;;;;;4753340;30;20229;-80
2021/05/12 07:15:10;;;;;;;3.13;1.65;;;21.20;85.50;;;;;;4753356;30;20699;-81
2021/05/12 07:17:36;;;;;;;3.47;1.95;;;;;;;;;;4768926;30;20757;-80
2021/05/12 07:20:02;;;;;;;3.40;1.90;;;;;;;;;;4769426;30;20205;-80
2021/05/12 07:22:28;;;;;;;5.57;1.77;;;;;;;;;;4753572;30;20202;-80
2021/05/12 07:24:54;;;;;;;3.72;1.58;;;;;;;;;;4772031;30;20290;-81
2021/05/12 07:27:22;;;;;;;1.85;1.40;;;;;;;;;;4757266;30;20194;-81
2021/05/12 07:29:49;;;;;;;7.43;1.88;;;22.00;81.40;;;;;;4773103;30;20640;-81
2021/05/12 07:32:15;;;;;;;5.32;1.90;;;;;;;;;;4772956;30;20223;-81
2021/05/12 07:34:41;;;;;;;6.38;1.80;;;21.50;79.40;;;;;;4773855;30;20200;-81
2021/05/12 07:37:07;;;;;;;12.90;2.22;;;;;;;;;;4739773;30;20230;-81
2021/05/12 07:39:33;;;;;;;2.45;1.70;;;22.10;78.00;;;;;;4772158;30;20250;-80
2021/05/12 07:42:02;;;;;;;5.18;1.75;;;22.00;64.20;;;;;;4756922;30;20641;-80
2021/05/12 07:44:29;;;;;;;8.40;1.60;;;22.50;66.70;;;;;;4771459;30;20371;-81
2021/05/12 07:46:55;;;;;;;3.05;1.40;;;;;;;;;;4739533;30;20209;-81
2021/05/12 07:49:21;;;;;;;5.53;1.25;;;;;;;;;;4756063;30;20528;-81
2021/05/12 07:51:47;;;;;;;8.68;1.52;;;;;;;;;;4772407;30;20201;-83
2021/05/12 07:54:12;;;;;;;1.90;1.27;;;22.40;74.60;;;;;;4772055;30;20223;-82
2021/05/12 07:56:38;;;;;;;2.70;1.73;;;;;;;;;;4739297;30;20198;-81
2021/05/12 07:59:04;;;;;;;2.92;1.75;;;;;;;;;;4770907;30;20186;-83
2021/05/12 08:01:36;;;;;;;11.00;1.40;;;;;;;;;;4772083;30;20667;-82
2021/05/12 08:04:01;;;;;;;4.45;2.00;;;23.10;72.90;;;;;;4755546;30;20194;-83
2021/05/12 08:06:27;;;;;;;5.60;2.60;;;;;;;;;;4755734;30;20204;-82
2021/05/12 08:08:53;;;;;;;11.63;4.20;;;;;;;;;;4740024;30;20690;-82
2021/05/12 08:11:21;;;;;;;3.45;1.77;;;23.40;68.00;;;;;;4754789;30;20273;-83
2021/05/12 08:13:47;;;;;;;8.02;2.30;;;;;;;;;;4752933;30;20233;-83
2021/05/12 08:16:13;;;;;;;5.38;1.75;;;;;;;;;;4753824;30;20209;-82
2021/05/12 08:18:39;;;;;;;3.50;1.80;;;;;;;;;;4737247;30;20266;-82
2021/05/12 08:21:06;;;;;;;7.53;3.45;;;23.60;66.60;;;;;;4737294;30;20741;-83
2021/05/12 08:23:32;;;;;;;7.43;1.58;;;;;;;;;;4753581;30;20656;-83
2021/05/12 08:25:58;;;;;;;3.58;1.67;;;;;;;;;;4737617;30;20195;-82
2021/05/12 08:28:24;;;;;;;7.38;1.42;;;;;;;;;;4753037;30;20674;-81
2021/05/12 08:30:50;;;;;;;6.78;1.60;;;;;;;;;;4753306;30;20187;-81
2021/05/12 08:33:17;;;;;;;9.27;1.45;;;;;;;;;;4753813;30;20205;-81
2021/05/12 08:35:45;;;;;;;3.47;1.30;;;24.00;68.40;;;;;;4752836;30;20696;-81
2021/05/12 08:38:18;;;;;;;6.88;1.67;;;23.50;58.50;;;;;;4737889;30;20729;-81
2021/05/12 08:40:45;;;;;;;8.48;1.50;;;23.70;58.60;;;;;;4754072;30;20214;-81
2021/05/12 08:43:13;;;;;;;9.00;1.80;;;23.80;69.50;;;;;;4737735;30;20281;-81
2021/05/12 08:45:39;;;;;;;6.75;2.63;;;;;;;;;;4738217;30;20195;-81
2021/05/12 08:48:11;;;;;;;5.55;1.60;;;24.00;68.70;;;;;;4753829;30;20657;-81
2021/05/12 08:50:38;;;;;;;11.52;2.15;;;24.10;57.80;;;;;;4738254;30;20187;-80
2021/05/12 08:53:04;;;;;;;3.17;1.48;;;;;;;;;;4753978;30;20201;-81
2021/05/12 08:55:31;;;;;;;4.85;1.70;;;23.80;68.00;;;;;;4753763;30;20190;-81
2021/05/12 08:57:57;;;;;;;4.10;1.48;;;;;;;;;;4753925;30;20227;-81
2021/05/12 09:00:23;;;;;;;9.30;1.60;;;;;;;;;;4737508;30;20194;-82
2021/05/12 09:02:49;;;;;;;13.05;1.70;;;;;;;;;;4737762;30;20191;-81
2021/05/12 09:05:15;;;;;;;9.07;2.10;;;24.90;67.00;;;;;;4753339;30;20274;-81
2021/05/12 09:07:41;;;;;;;7.57;1.85;;;;;;;;;;4737776;30;20776;-81
2021/05/12 09:10:08;;;;;;;6.63;1.42;;;24.90;65.80;;;;;;4753679;30;20190;-81
2021/05/12 09:12:48;;;;;;;6.22;1.67;;;24.70;66.90;;;;;;4753385;30;20248;-81
2021/05/12 09:15:18;;;;;;;6.25;1.60;;;24.20;66.30;;;;;;4737007;30;20187;-82
2021/05/12 09:17:46;;;;;;;10.95;1.73;;;25.00;66.40;;;;;;4737297;30;20774;-81
2021/05/12 09:20:21;;;;;;;11.43;1.65;;;24.50;65.70;;;;;;4752222;30;20615;-83
2021/05/12 09:22:47;;;;;;;6.35;1.60;;;24.50;65.00;;;;;;4753432;30;20186;-82
2021/05/12 09:25:17;;;;;;;4.65;1.70;;;25.00;65.20;;;;;;4753412;30;20657;-83
2021/05/12 09:27:51;;;;;;;5.60;1.70;;;24.70;63.30;;;;;;4738108;30;20653;-82
2021/05/12 09:30:21;;;;;;;10.93;2.00;;;24.90;63.80;;;;;;4753109;30;20545;-82
2021/05/12 09:32:47;;;;;;;6.15;1.75;;;25.30;65.70;;;;;;4737409;30;20183;-81
2021/05/12 09:35:14;;;;;;;5.80;1.70;;;25.00;54.70;;;;;;4753219;30;20268;-84
2021/05/12 09:37:44;;;;;;;8.85;1.77;;;25.30;64.90;;;;;;4737204;30;20253;-81
2021/05/12 09:40:17;;;;;;;9.43;1.65;;;24.70;63.50;;;;;;4753490;30;20639;-82
2021/05/12 09:42:45;;;;;;;7.85;1.40;;;25.10;54.00;;;;;;4737530;30;20273;-81
2021/05/12 09:45:21;;;;;;;3.60;1.60;;;25.40;63.90;;;;;;4737261;30;20210;-81
2021/05/12 09:47:49;;;;;;;9.65;1.83;;;25.40;54.10;;;;;;4752254;30;20194;-82
2021/05/12 09:50:26;;;;;;;8.70;1.95;;;25.30;63.50;;;;;;4752653;30;20201;-82
2021/05/12 09:52:57;;;;;;;8.85;2.45;;;25.30;63.00;;;;;;4736749;30;20186;-82
2021/05/12 09:55:46;;;;;;;9.27;2.35;;;25.50;65.60;;;;;;4752998;30;20187;-83
2021/05/12 09:58:17;;;;;;;16.58;1.95;;;26.20;54.60;;;;;;4736574;30;20218;-82
2021/05/12 10:00:48;;;;;;;6.32;1.48;;;26.30;54.20;;;;;;4752798;30;20187;-81
2021/05/12 10:03:15;;;;;;;8.70;2.13;;;26.40;54.70;;;;;;4752661;30;20182;-82
2021/05/12 10:06:04;;;;;;;4.00;1.55;;;26.00;61.20;;;;;;4752596;30;20213;-83
2021/05/12 10:08:32;;;;;;;9.27;1.80;;;26.30;61.30;;;;;;4736820;30;20198;-81
2021/05/12 10:11:06;;;;;;;4.15;1.88;;;26.50;54.30;;;;;;4752817;30;20187;-82
2021/05/12 10:13:33;;;;;;;6.10;1.85;;;26.20;53.20;;;;;;4752534;30;20277;-82
2021/05/12 10:16:04;;;;;;;5.43;1.60;;;25.70;62.80;;;;;;4736551;30;20198;-82
2021/05/12 10:18:30;;;;;;;6.45;1.60;;;;;;;;;;4752585;30;20234;-82
2021/05/12 10:20:57;;;;;;;7.45;2.08;;;26.70;61.00;;;;;;4736603;30;20744;-81
2021/05/12 10:23:25;;;;;;;5.22;1.70;;;26.30;60.60;;;;;;4736356;30;20210;-82
2021/05/12 10:25:52;;;;;;;13.98;2.03;;;26.30;51.70;;;;;;4752457;30;20314;-82
2021/05/12 10:28:18;;;;;;;4.50;1.88;;;26.30;51.80;;;;;;4750990;30;20198;-82
2021/05/12 10:30:50;;;;;;;10.25;2.13;;;26.10;52.60;;;;;;4756731;30;20190;-81
2021/05/12 10:33:17;;;;;;;6.10;2.28;;;;;;;;;;4767750;30;20667;-80
2021/05/12 10:35:43;;;;;;;6.43;2.17;;;26.00;60.90;;;;;;4753897;30;20224;-81
2021/05/12 10:38:30;;;;;;;9.05;2.25;;;26.30;52.20;;;;;;4754727;30;20278;-84
2021/05/12 10:40:56;;;;;;;7.40;2.40;;;26.10;60.20;;;;;;4769728;30;20639;-81
2021/05/12 10:43:29;;;;;;;5.60;2.15;;;;;;;;;;4769687;30;20186;-82
2021/05/12 10:46:17;;;;;;;8.85;2.88;;;26.00;62.00;;;;;;4769960;30;20189;-81
2021/05/12 10:48:50;;;;;;;10.60;2.20;;;26.70;54.30;;;;;;4751897;30;20596;-82
2021/05/12 10:51:23;;;;;;;13.32;2.25;;;26.30;59.80;;;;;;4766437;30;20532;-81
2021/05/12 10:53:57;;;;;;;10.85;2.80;;;26.60;52.10;;;;;;4768213;30;20883;-81
2021/05/12 10:56:33;;;;;;;7.05;2.50;;;26.60;52.30;;;;;;4769271;30;20186;-81
2021/05/12 10:59:02;;;;;;;8.65;2.17;;;26.70;52.50;;;;;;4770052;30;20226;-82
2021/05/12 11:01:32;;;;;;;11.27;2.30;;;26.60;51.50;;;;;;4772833;30;20189;-82
2021/05/12 11:03:58;;;;;;;4.75;2.42;;;;;;;;;;4757394;30;20200;-80
2021/05/12 11:06:44;;;;;;;21.95;2.65;;;26.60;59.90;;;;;;4772876;30;20261;-81
2021/05/12 11:09:17;;;;;;;10.02;3.22;;;26.50;50.90;;;;;;4745102;30;20193;-80
2021/05/12 11:11:45;;;;;;;8.45;2.75;;;26.70;51.60;;;;;;4773343;30;20231;-81
2021/05/12 11:14:25;;;;;;;4.55;2.60;;;26.20;57.90;;;;;;4771989;30;20202;-82
2021/05/12 11:17:08;;;;;;;6.88;2.15;;;26.30;58.90;;;;;;4770771;30;20294;-82
2021/05/12 11:19:44;;;;;;;12.02;2.55;;;26.10;57.60;;;;;;4772461;30;20182;-82
2021/05/12 11:24:58;;;;;;;6.13;2.70;;;26.40;51.10;;;;;;4770632;30;20186;-81
2021/05/12 11:32:23;;;;;;;9.55;3.03;;;26.40;50.00;;;;;;4757104;30;20201;-81
2021/05/12 11:34:49;;;;;;;10.77;2.45;;;26.80;58.70;;;;;;4770075;30;20683;-81
2021/05/12 11:37:19;;;;;;;6.25;2.38;;;26.70;59.20;;;;;;4772423;30;20209;-81
2021/05/12 11:39:46;;;;;;;10.88;3.33;;;26.20;58.30;;;;;;4772453;30;20247;-81
2021/05/12 11:42:31;;;;;;;4.60;2.40;;;26.00;58.40;;;;;;4756643;30;20585;-80
2021/05/12 11:45:09;;;;;;;9.07;2.78;;;26.40;58.90;;;;;;4771270;30;20331;-80
2021/05/12 11:47:40;;;;;;;13.45;3.05;;;26.50;50.80;;;;;;4770680;30;20186;-82
2021/05/12 11:50:19;;;;;;;8.20;2.50;;;26.40;54.30;;;;;;4772479;30;20186;-80
2021/05/12 11:52:46;;;;;;;11.50;3.33;;;26.70;58.90;;;;;;4771986;30;20185;-83
2021/05/12 11:55:12;;;;;;;5.68;2.83;;;26.70;59.80;;;;;;4772401;30;20194;-82
2021/05/12 11:57:38;;;;;;;7.45;3.17;;;;;;;;;;4772041;30;20221;-81
2021/05/12 12:00:07;;;;;;;6.43;2.80;;;26.20;61.60;;;;;;4772249;30;20281;-82
2021/05/12 12:02:33;;;;;;;14.93;3.60;;;;;;;;;;4771800;30;20293;-82
2021/05/12 12:05:04;;;;;;;4.38;2.58;;;26.60;52.80;;;;;;4741318;30;20564;-81
2021/05/12 12:07:32;;;;;;;12.82;3.20;;;;;;;;;;4756867;30;20272;-82
2021/05/12 12:10:07;;;;;;;6.65;3.08;;;27.10;59.90;;;;;;4755504;30;20194;-81
2021/05/12 12:12:34;;;;;;;9.32;3.17;;;27.00;58.70;;;;;;4770668;30;20256;-81
2021/05/12 12:15:18;;;;;;;4.22;3.00;;;26.80;51.50;;;;;;4757418;30;20198;-80
2021/05/12 12:17:44;;;;;;;7.47;3.53;;;26.90;61.70;;;;;;4770307;30;20245;-81
2021/05/12 12:20:09;;;;;;;7.72;2.95;;;26.50;60.50;;;;;;4772316;30;20205;-80
2021/05/12 12:22:35;;;;;;;9.55;3.25;;;26.40;61.60;;;;;;4757083;30;20186;-81
2021/05/12 12:25:18;;;;;;;9.32;3.13;;;26.50;59.90;;;;;;4742050;30;20612;-82
2021/05/12 12:27:45;;;;;;;8.82;3.00;;;26.60;60.00;;;;;;4771817;30;20200;-81
2021/05/12 12:30:15;;;;;;;6.88;3.55;;;26.80;61.90;;;;;;4772257;30;20656;-81
2021/05/12 12:32:42;;;;;;;5.80;3.15;;;26.90;51.90;;;;;;4772393;30;20174;-80
2021/05/12 12:35:08;;;;;;;9.60;3.20;;;26.30;59.10;;;;;;4768550;30;20194;-79
2021/05/12 12:37:37;;;;;;;9.50;3.05;;;;;;;;;;4772150;30;20262;-80
2021/05/12 12:40:09;;;;;;;5.72;3.08;;;26.50;53.10;;;;;;4771682;30;20190;-79
2021/05/12 12:42:39;;;;;;;8.10;3.45;;;26.40;51.60;;;;;;4755513;30;20593;-79
2021/05/12 12:45:35;;;;;;;9.88;3.45;;;26.60;60.60;;;;;;4771550;30;20206;-79
2021/05/12 12:48:04;;;;;;;7.53;3.10;;;26.40;61.00;;;;;;4764768;30;20803;-79
2021/05/12 12:50:32;;;;;;;15.13;3.60;;;26.40;59.60;;;;;;4771906;30;20181;-79
2021/05/12 12:52:59;;;;;;;5.80;3.35;;;26.90;60.80;;;;;;4771377;30;20190;-79
2021/05/12 12:55:28;;;;;;;11.35;3.90;;;26.40;61.40;;;;;;4755438;30;20210;-79
2021/05/12 12:57:58;;;;;;;9.18;3.72;;;26.40;52.60;;;;;;4754914;30;20220;-80
2021/05/12 13:00:28;;;;;;;15.13;4.03;;;26.60;52.10;;;;;;4732266;30;20186;-79
2021/05/12 13:03:11;;;;;;;6.57;3.83;;;26.80;51.80;;;;;;4755068;30;20551;-79
2021/05/12 13:05:53;;;;;;;13.48;4.03;;;27.30;50.90;;;;;;4770786;30;20525;-80
2021/05/12 13:08:35;;;;;;;7.97;3.85;;;26.80;59.20;;;;;;4771146;30;20221;-79
2021/05/12 13:11:03;;;;;;;9.23;4.32;;;26.70;59.30;;;;;;4770205;30;20236;-79
2021/05/12 13:13:32;;;;;;;11.60;4.65;;;27.20;58.90;;;;;;4770792;30;20193;-80
2021/05/12 13:16:20;;;;;;;11.93;4.72;;;26.60;50.90;;;;;;4769068;30;20178;-80
2021/05/12 13:19:06;;;;;;;13.68;4.47;;;26.50;51.00;;;;;;4746284;30;20293;-83
2021/05/12 13:21:35;;;;;;;8.55;4.35;;;26.80;59.70;;;;;;4754417;30;20229;-80
2021/05/12 13:24:12;;;;;;;9.45;4.57;;;26.70;61.40;;;;;;4770861;30;20186;-79
2021/05/12 13:26:43;;;;;;;8.45;4.65;;;26.40;52.00;;;;;;4740316;30;20193;-79
2021/05/12 13:29:16;;;;;;;9.20;5.10;;;26.80;61.10;;;;;;4770629;30;20547;-79
2021/05/12 13:31:42;;;;;;;9.30;5.55;;;;;;;;;;4754677;30;20193;-81
2021/05/12 13:34:12;;;;;;;8.45;4.72;;;26.70;52.10;;;;;;4754046;30;20182;-80
2021/05/12 13:36:39;;;;;;;15.57;5.78;;;26.70;52.60;;;;;;4769301;30;20201;-79